Latest Coastal Weather Observations for Mackay

IDQ60701

Issued at 2:02 am EST Friday 5 March 2021 (issued every 10 minutes, with the page automatically refreshed every 10 minutes)

About coastal observations | Map of coastal stations | Coastal observations for QLD | Marine services | Other Formats
Station Details ID: 033119 Name: MACKAY M.O Lat: -21.12 Lon: 149.22 Height: 30.26 m
Data from the previous 72 hours. | See also: Recent months at Mackay
Date/Time
EST
Wind Sea
Height
m
Swell Vis
km
Cloud Weather Temp
°C
Press
MSL
hPa
Rain since
9am
mm
Dir  Spd
kts
Gust
kts
Height
m
Period
s
Dir
05/02:00am SSE 14 23 - - - - - Partly cloudy - 25.7 1004.6 9.0
05/01:30am SE 14 21 - - - - - Partly cloudy - 25.7 1004.7 9.0
05/01:00am SSE 15 21 - - - - - Partly cloudy - 25.7 1004.9 8.8
05/12:57am SSE 15 25 - - - - - Partly cloudy - 26.2 1004.9 8.6
05/12:30am SSE 13 20 - - - - - Partly cloudy - 26.2 1005.2 8.6
05/12:09am SSE 15 26 - - - - - Partly cloudy - 26.3 1005.3 8.6
05/12:00am SE 13 21 - - - - - Cloudy - 26.3 1005.4 8.6
 
Date/Time
EST
Wind Sea
Height
m
Swell Vis
km
Cloud Weather Temp
°C
Press
MSL
hPa
Rain since
9am
mm
Dir  Spd
kts
Gust
kts
Height
m
Period
s
Dir
04/11:30pm SE 13 24 - - - - - Partly cloudy - 26.2 1005.4 8.6
04/11:00pm SSE 14 22 - - - - - Partly cloudy - 25.6 1005.7 8.6
04/10:30pm SE 13 22 - - - - - Partly cloudy - 26.5 1005.7 8.6
04/10:00pm SE 13 23 - - - - - Partly cloudy - 26.4 1005.6 8.6
04/09:30pm SSE 15 27 - - - - - Partly cloudy - 26.5 1005.5 8.6
04/09:00pm SSE 15 27 - - - - - Cloudy - 26.4 1005.2 8.6
04/08:30pm SSE 15 26 - - - - - Partly cloudy - 26.3 1005.0 8.6
04/08:05pm SSE 16 26 - - - - - Partly cloudy - 25.9 1005.0 8.6
04/08:00pm SSE 16 25 - - - - - Partly cloudy - 26.5 1005.0 8.6
04/07:30pm SSE 16 27 - - - - - Partly cloudy - 26.4 1004.8 8.4
04/07:04pm SSE 16 26 - - - - - Partly cloudy - 26.2 1004.5 8.4
04/07:00pm SSE 17 26 - - - - - Partly cloudy - 26.2 1004.5 8.4
04/06:30pm SSE 16 26 - - - - - Partly cloudy - 26.0 1004.2 8.4
04/06:00pm SSE 17 27 - - - - - Cloudy Recent precip. 25.5 1004.0 8.4
04/05:52pm SSE 16 27 - - - - - Partly cloudy - 25.4 1003.9 8.4
04/05:30pm SSE 11 19 - - - - - Partly cloudy - 24.6 1003.9 8.2
04/05:04pm SSE 15 27 - - - - - Partly cloudy - 24.2 1003.8 7.6
04/05:00pm SSE 15 24 - - - - - Partly cloudy - 24.4 1003.8 7.6
04/04:53pm SSE 15 25 - - - - - Partly cloudy - 24.0 1003.7 7.6
04/04:30pm SE 10 16 - - - - - Partly cloudy - 24.0 1003.7 7.6
04/04:07pm SSE 15 26 - - - - - Partly cloudy - 23.8 1003.5 7.0
04/04:00pm SSE 15 23 - - - - - Partly cloudy - 23.9 1003.5 7.0
04/03:30pm S 15 23 - - - - - Partly cloudy - 24.3 1003.5 6.6
04/03:00pm SE 14 24 - - - - - Cloudy Rain 24.0 1003.8 6.2
04/02:30pm S 17 27 - - - - - Partly cloudy - 25.9 1003.7 3.8
04/02:22pm SSE 15 25 - - - - - Partly cloudy - 25.7 1003.7 3.8
04/02:00pm SSE 16 25 - - - - - Partly cloudy - 24.7 1004.0 3.8
04/01:34pm SSE 17 27 - - - - - Partly cloudy - 24.8 1004.0 3.8
04/01:30pm SSE 18 27 - - - - - Partly cloudy - 25.7 1003.9 2.2
04/01:12pm S 15 25 - - - - - Partly cloudy - 25.6 1004.1 2.2
04/01:00pm S 14 21 - - - - - Partly cloudy - 25.6 1004.5 2.2
04/12:47pm S 15 27 - - - - - Partly cloudy - 25.7 1004.7 2.2
04/12:30pm SSE 16 24 - - - - - Partly cloudy - 25.2 1004.8 2.2
04/12:09pm SSE 15 25 - - - - - Partly cloudy - 26.5 1004.9 2.2
04/12:00pm SSE 12 21 - - - - - Cloudy Recent precip. 27.6 1005.0 2.2
04/11:42am SSE 15 27 - - - - - Partly cloudy - 26.0 1005.2 2.2
04/11:30am SSE 13 20 - - - - - - - 28.4 1005.1 2.2
04/11:00am SSE 14 22 - - - - - Partly cloudy - 27.3 1005.4 2.0
04/10:30am SSE 12 19 - - - - - Partly cloudy - 27.2 1005.5 2.0
04/10:00am S 11 22 - - - - - Partly cloudy - 25.7 1005.7 2.0
04/09:30am SSE 12 19 - - - - - Partly cloudy - 26.5 1005.7 0.0
04/09:00am S 10 15 - - - - - Cloudy Recent precip. 25.5 1005.6 5.6
04/08:30am S 11 17 - - - - - Partly cloudy - 26.5 1005.4 0.2
04/08:00am S 10 16 - - - - - Partly cloudy - 26.7 1005.3 0.2
04/07:30am S 11 18 - - - - - Partly cloudy - 25.4 1005.0 0.2
04/07:00am S 10 15 - - - - - Partly cloudy - 25.2 1004.8 0.2
04/06:30am SSE 10 16 - - - - - Partly cloudy - 26.6 1004.4 0.2
04/06:00am SSE 11 18 - - - - - Partly cloudy - 26.7 1004.3 0.2
04/05:30am SSE 10 15 - - - - - Partly cloudy - 26.6 1004.1 0.2
04/05:00am SE 11 17 - - - - - Partly cloudy - 26.6 1003.8 0.2
04/04:30am SE 10 18 - - - - - Partly cloudy - 26.7 1003.6 0.2
04/04:00am SE 11 16 - - - - - Partly cloudy - 26.8 1003.5 0.2
04/03:30am SSE 10 16 - - - - - Partly cloudy - 26.6 1003.9 0.2
04/03:00am SSE 11 19 - - - - - Cloudy - 26.7 1003.8 0.2
04/02:30am SSE 11 16 - - - - - Partly cloudy - 26.6 1003.9 0.2
04/02:00am SE 9 15 - - - - - Partly cloudy - 26.5 1004.4 0.2
04/01:30am SSE 9 14 - - - - - Partly cloudy - 26.5 1004.8 0.2
04/01:00am SSE 8 14 - - - - - Partly cloudy - 26.4 1005.0 0.2
04/12:30am SSE 9 13 - - - - - Partly cloudy - 26.4 1005.0 0.2
04/12:00am SSE 9 15 - - - - - Partly cloudy - 26.4 1005.2 0.2
 
Date/Time
EST
Wind Sea
Height
m
Swell Vis
km
Cloud Weather Temp
°C
Press
MSL
hPa
Rain since
9am
mm
Dir  Spd
kts
Gust
kts
Height
m
Period
s
Dir
03/11:30pm SSE 10 14 - - - - - Partly cloudy - 26.6 1005.3 0.2
03/11:00pm SSE 9 16 - - - - - Partly cloudy - 26.6 1005.6 0.2
03/10:30pm SE 8 13 - - - - - Partly cloudy - 26.8 1005.8 0.2
03/10:00pm SE 9 14 - - - - - Partly cloudy - 26.8 1005.8 0.2
03/09:30pm SE 9 14 - - - - - Partly cloudy - 26.9 1005.8 0.2
03/09:00pm SE 9 14 - - - - - Mostly clear - 26.9 1005.8 0.2
03/08:30pm SE 10 16 - - - - - - - 27.0 1005.6 0.2
03/08:00pm SE 9 15 - - - - - Partly cloudy - 27.0 1005.3 0.2
03/07:30pm SE 10 16 - - - - - Partly cloudy - 27.1 1005.2 0.2
03/07:00pm ESE 9 14 - - - - - Partly cloudy - 27.2 1005.2 0.2
03/06:30pm ESE 10 17 - - - - - Cloudy - 27.5 1005.1 0.2
03/06:00pm ESE 11 19 - - - - - Mostly cloudy - 27.8 1005.0 0.2
03/05:30pm SE 10 17 - - - - - Partly cloudy - 27.8 1004.8 0.2
03/05:00pm ESE 9 14 - - - - - Partly cloudy - 28.1 1004.6 0.2
03/04:30pm SE 10 15 - - - - - Partly cloudy - 28.8 1004.6 0.2
03/04:00pm SE 9 15 - - - - - - - 29.2 1004.5 0.2
03/03:30pm SSE 11 18 - - - - - - - 29.2 1004.3 0.2
03/03:00pm SE 11 17 - - - - - - - 29.3 1004.7 0.2
03/02:30pm SSE 10 17 - - - - - Partly cloudy - 29.8 1004.8 0.2
03/02:00pm SSE 12 19 - - - - - Partly cloudy - 29.7 1005.2 0.2
03/01:30pm SSE 12 19 - - - - - Partly cloudy - 29.6 1005.6 0.2
03/01:00pm SSE 14 22 - - - - - - - 29.9 1005.6 0.2
03/12:30pm S 15 24 - - - - - Partly cloudy - 28.9 1005.7 0.2
03/12:00pm S 15 22 - - - - - Mostly clear - 29.2 1006.3 0.2
03/11:30am SSE 14 21 - - - - - - - 29.2 1006.9 0.2
03/11:00am SSE 15 22 - - - - - - - 28.8 1007.1 0.2
03/10:30am S 15 21 - - - - - Partly cloudy - 28.7 1007.5 0.2
03/10:00am SSE 15 25 - - - - - Partly cloudy - 27.7 1007.4 0.2
03/09:50am SSE 15 25 - - - - - Partly cloudy - 28.0 1007.5 0.2
03/09:30am S 15 22 - - - - - Partly cloudy - 27.8 1007.7 0.2
03/09:00am S 14 24 - - - - - Cloudy - 27.0 1007.3 5.6
03/08:30am S 14 22 - - - - - Partly cloudy - 26.0 1007.3 5.6
03/08:00am S 12 19 - - - - - Partly cloudy - 25.2 1007.0 5.6
03/07:30am S 11 17 - - - - - Partly cloudy - 24.4 1006.8 5.6
03/07:02am S 11 16 - - - - - Partly cloudy - 24.5 1006.2 5.6
03/07:00am S 11 18 - - - - - Partly cloudy - 24.5 1006.2 5.6
03/06:41am S 8 12 - - - - - Partly cloudy - 24.7 1006.0 5.6
03/06:30am S 9 16 - - - - - Partly cloudy - 24.8 1006.0 5.0
03/06:00am S 10 14 - - - - - Cloudy - 25.4 1005.6 0.2
03/05:30am SSE 11 17 - - - - - Partly cloudy - 26.6 1005.5 0.2
03/05:00am SSE 10 17 - - - - - Partly cloudy - 26.7 1005.3 0.2
03/04:30am SSE 10 16 - - - - - Partly cloudy - 26.7 1005.0 0.2
03/04:00am SE 9 14 - - - - - Partly cloudy - 26.8 1004.8 0.2
03/03:30am SSE 9 13 - - - - - Partly cloudy - 26.8 1004.8 0.2
03/03:00am SSE 9 14 - - - - - Cloudy - 26.6 1004.8 0.2
03/02:30am SE 9 15 - - - - - Partly cloudy - 26.7 1005.0 0.2
03/02:00am SSE 10 14 - - - - - Partly cloudy - 26.6 1004.9 0.2
03/01:30am SE 10 16 - - - - - Partly cloudy - 26.7 1005.1 0.2
03/01:00am SE 9 15 - - - - - Partly cloudy - 26.7 1005.6 0.2
03/12:30am SSE 9 14 - - - - - Partly cloudy - 26.8 1005.6 0.2
03/12:00am SSE 10 15 - - - - - Mostly clear - 26.8 1005.8 0.2
 
Date/Time
EST
Wind Sea
Height
m
Swell Vis
km
Cloud Weather Temp
°C
Press
MSL
hPa
Rain since
9am
mm
Dir  Spd
kts
Gust
kts
Height
m
Period
s
Dir
02/11:30pm SE 9 14 - - - - - Partly cloudy - 27.0 1006.2 0.2
02/11:00pm SE 8 13 - - - - - Partly cloudy - 27.1 1006.4 0.2
02/10:30pm SE 9 14 - - - - - - - 27.0 1006.4 0.2
02/10:00pm SE 10 17 - - - - - - - 27.1 1006.4 0.2
02/09:30pm SE 11 18 - - - - - - - 27.1 1005.9 0.2
02/09:00pm SE 12 20 - - - - - Cloudy - 27.1 1005.7 0.2
02/08:30pm SE 11 19 - - - - - Partly cloudy - 27.1 1005.6 0.2
02/08:00pm SE 12 19 - - - - - Partly cloudy - 27.2 1005.7 0.2
02/07:30pm SE 11 21 - - - - - Partly cloudy - 27.2 1005.5 0.2
02/07:00pm SE 11 21 - - - - - - - 27.3 1005.2 0.2
02/06:30pm SE 12 23 - - - - - - - 27.4 1005.0 0.2
02/06:00pm SE 12 21 - - - - - Cloudy - 27.6 1004.9 0.2
02/05:30pm SE 12 19 - - - - - - - 27.9 1004.7 0.2
02/05:00pm SE 13 22 - - - - - - - 28.1 1004.4 0.2
02/04:30pm SSE 13 23 - - - - - - - 28.2 1004.2 0.2
02/04:00pm SSE 13 23 - - - - - - - 28.4 1004.2 0.2
02/03:30pm SSE 12 22 - - - - - Partly cloudy - 29.3 1004.4 0.2
02/03:00pm SSE 13 23 - - - - - Cloudy - 29.4 1004.5 0.2
02/02:30pm SSE 13 22 - - - - - - - 29.5 1004.7 0.2
02/02:00pm SSE 13 24 - - - - - Partly cloudy - 29.3 1004.8 0.2
02/01:30pm SSE 13 21 - - - - - Partly cloudy - 28.9 1004.8 0.2
02/01:06pm SSE 15 26 - - - - - Partly cloudy - 28.4 1004.9 0.2
02/01:00pm SSE 14 21 - - - - - Partly cloudy - 28.4 1005.0 0.2
02/12:30pm SSE 15 25 - - - - - Partly cloudy - 28.1 1005.1 0.2
02/12:29pm SSE 15 25 - - - - - Partly cloudy - 28.1 1005.1 0.2
02/12:00pm SSE 14 22 - - - - - Cloudy - 29.0 1005.4 0.2
02/11:30am SSE 15 25 - - - - - Partly cloudy - 28.9 1005.7 0.2
02/11:26am SSE 15 25 - - - - - Partly cloudy - 28.5 1005.7 0.2
02/11:00am SSE 15 23 - - - - - Partly cloudy - 28.2 1006.0 0.2
02/10:30am SSE 14 21 - - - - - Partly cloudy - 28.2 1006.2 0.2
02/10:00am S 12 19 - - - - - Partly cloudy - 27.8 1006.4 0.0
02/09:30am S 14 21 - - - - - Partly cloudy - 27.6 1006.7 0.0
02/09:00am SSE 14 21 - - - - - Cloudy - 28.5 1006.6 2.4
02/08:30am S 12 19 - - - - - Partly cloudy - 28.1 1006.5 2.4
02/08:00am SSE 13 19 - - - - - Partly cloudy - 27.7 1006.2 2.4
02/07:30am SSE 13 21 - - - - - Partly cloudy - 27.5 1006.1 2.4
02/07:00am SSE 12 20 - - - - - Partly cloudy - 27.3 1005.8 2.4
02/06:30am SE 12 19 - - - - - Partly cloudy - 27.3 1005.3 2.4
02/06:00am SE 11 17 - - - - - Cloudy - 27.0 1005.1 2.4
02/05:30am SE 12 19 - - - - - Partly cloudy - 27.3 1004.7 2.4
02/05:00am SE 10 17 - - - - - Partly cloudy - 27.2 1004.3 2.4
02/04:30am SE 11 19 - - - - - - - 27.3 1004.0 2.4
02/04:00am SE 11 20 - - - - - Partly cloudy - 27.2 1004.2 2.4
02/03:30am SE 12 18 - - - - - Partly cloudy - 27.2 1003.9 2.4
02/03:00am SE 12 19 - - - - - Cloudy - 27.1 1004.0 2.4
02/02:30am SE 11 19 - - - - - Partly cloudy - 27.1 1004.3 2.4

Other formats

Comma delimited format used in spreadsheet applications
http://www.bom.gov.au/fwo/IDQ60701/IDQ60701.94367.axf

JavaScript Object Notation format (JSON) in row-major order
http://www.bom.gov.au/fwo/IDQ60701/IDQ60701.94367.json

Data quality

Most of these data are generated automatically and are frequently updated. Quality checks on data are not normally performed. It is possible for incorrect values to appear. Refer to information at About Latest Weather Observations and please check the disclaimer before using these data.